Terminal Aerodrome Forecast
Issued by NWS

Home | Current Version | Previous Version | Text Only | Print | Product List | Glossary On
Versions: 1 2 3 4 5 6 7 8 9 10 11 12 13
000
FTAK31 PAJN 031100
TAFAWG
TAF
PAWG 031130Z 0312/0412 14005KT P6SM VCSH BKN030
     FM031500 VRB03KT P6SM VCSH BKN020 OVC040
     FM031900 26005KT 6SM -RA BR SCT015 OVC025
     FM032200 30008KT 6SM -RA BR BKN025 OVC050
     FM040600 12007KT P6SM SCT025 BKN040
      AMD LTD TO CLD VIS AND WIND 0312/0315=

USA.gov is the U.S. government's official web portal to all federal, state and local government web resources and services.